createdAt,value
2023-02-11T00:00:39.688Z,26.52
2023-02-11T00:01:41.130Z,23.98
2023-02-11T00:02:42.853Z,24.50
2023-02-11T00:03:44.313Z,27.08
2023-02-11T00:04:45.789Z,25.45
2023-02-11T00:05:57.395Z,25.92
2023-02-11T00:06:58.805Z,27.13
2023-02-11T00:08:00.303Z,26.20
2023-02-11T00:09:02.140Z,24.88
2023-02-11T00:10:07.751Z,26.05
2023-02-11T00:11:13.438Z,25.75
2023-02-11T00:12:15.702Z,27.50
2023-02-11T00:13:17.140Z,26.13
2023-02-11T00:14:18.639Z,26.92
2023-02-11T00:15:21.144Z,27.65
2023-02-11T00:16:23.282Z,26.27
2023-02-11T00:17:24.807Z,26.20
2023-02-11T00:18:26.330Z,25.77
2023-02-11T00:19:27.753Z,25.13
2023-02-11T00:20:29.232Z,27.33
2023-02-11T00:21:30.677Z,24.67
2023-02-11T00:22:32.156Z,27.90
2023-02-11T00:23:33.560Z,26.52
2023-02-11T00:24:36.509Z,28.98
2023-02-11T00:25:43.036Z,26.85
2023-02-11T00:26:44.873Z,25.77
2023-02-11T00:27:46.272Z,26.70
2023-02-11T00:28:49.285Z,25.33
2023-02-11T00:29:50.752Z,26.27
2023-02-11T00:30:56.281Z,25.33
2023-02-11T00:31:57.935Z,24.83
2023-02-11T00:32:59.501Z,25.55
2023-02-11T00:34:00.984Z,26.33
2023-02-11T00:35:02.411Z,25.98
2023-02-11T00:36:06.222Z,19.60
2023-02-11T00:37:07.767Z,27.23
2023-02-11T00:38:09.258Z,26.35
2023-02-11T00:39:10.840Z,26.90
2023-02-11T00:40:12.424Z,26.17
2023-02-11T00:41:15.079Z,26.52
2023-02-11T00:42:16.802Z,24.67
2023-02-11T00:43:18.296Z,26.90
2023-02-11T00:44:19.748Z,24.90
2023-02-11T00:45:21.549Z,26.52
2023-02-11T00:46:23.751Z,26.45
2023-02-11T00:47:25.248Z,26.95
2023-02-11T00:48:26.821Z,26.08
2023-02-11T00:49:28.230Z,26.20
2023-02-11T00:50:29.707Z,25.73
2023-02-11T00:51:31.286Z,26.33
2023-02-11T00:52:33.000Z,27.63
2023-02-11T00:53:35.086Z,26.13
2023-02-11T00:55:37.916Z,24.05
2023-02-11T00:56:39.480Z,24.88
2023-02-11T00:57:41.347Z,25.92
2023-02-11T00:58:42.747Z,26.65
2023-02-11T00:59:44.272Z,25.95
2023-02-11T01:00:45.762Z,25.95
2023-02-11T01:01:47.221Z,24.48
2023-02-11T01:02:48.650Z,25.88
2023-02-11T01:03:50.190Z,26.38
2023-02-11T01:04:51.696Z,25.55
2023-02-11T01:05:53.574Z,26.92
2023-02-11T01:06:55.011Z,25.33
2023-02-11T01:07:56.469Z,24.88
2023-02-11T01:08:57.947Z,26.67
2023-02-11T01:09:59.450Z,26.63
2023-02-11T01:11:06.668Z,25.75
2023-02-11T01:12:08.085Z,26.60
2023-02-11T01:13:09.947Z,26.35
2023-02-11T01:14:11.388Z,27.23
2023-02-11T01:15:15.525Z,26.52
2023-02-11T01:16:17.917Z,24.55
2023-02-11T01:17:19.415Z,28.15
2023-02-11T01:18:20.892Z,26.42
2023-02-11T01:19:22.457Z,26.80
2023-02-11T01:20:26.802Z,27.50
2023-02-11T01:21:28.260Z,27.40
2023-02-11T01:22:29.787Z,26.38
2023-02-11T01:23:31.256Z,26.02
2023-02-11T01:24:32.800Z,26.35
2023-02-11T01:25:34.256Z,26.77
2023-02-11T01:26:35.793Z,25.42
2023-02-11T01:27:37.905Z,25.42
2023-02-11T01:29:41.526Z,23.20
2023-02-11T01:30:43.028Z,25.60
2023-02-11T01:31:44.537Z,24.05
2023-02-11T01:32:45.957Z,26.48
2023-02-11T01:33:47.446Z,27.40
2023-02-11T01:34:48.870Z,25.42
2023-02-11T01:35:51.543Z,25.35
2023-02-11T01:36:58.231Z,30.50
2023-02-11T01:37:59.656Z,27.30
2023-02-11T01:39:01.124Z,26.23
2023-02-11T01:40:05.330Z,26.73
2023-02-11T01:41:10.629Z,26.15
2023-02-11T01:42:17.084Z,26.33
2023-02-11T01:43:18.906Z,25.80
2023-02-11T01:44:36.815Z,23.42
2023-02-11T01:45:47.329Z,26.95
2023-02-11T01:46:48.867Z,24.02
2023-02-11T01:47:50.277Z,26.50
2023-02-11T01:48:59.758Z,26.58
2023-02-11T01:50:02.000Z,27.98
2023-02-11T01:51:14.260Z,29.40
2023-02-11T01:52:24.948Z,25.30
2023-02-11T01:53:47.760Z,27.27
2023-02-11T01:55:18.261Z,26.30
2023-02-11T01:56:39.524Z,24.63
2023-02-11T01:57:44.714Z,26.48
2023-02-11T01:58:48.955Z,23.55
2023-02-11T02:00:02.260Z,27.38
2023-02-11T02:01:06.627Z,25.70
2023-02-11T02:02:12.750Z,25.30
2023-02-11T02:03:22.503Z,26.38
2023-02-11T02:04:31.219Z,24.85
2023-02-11T02:05:41.595Z,26.42
2023-02-11T02:06:59.483Z,26.60
2023-02-11T02:08:17.683Z,26.85
2023-02-11T02:09:31.732Z,27.15
2023-02-11T02:10:35.387Z,26.90
2023-02-11T02:11:37.436Z,24.88
2023-02-11T02:12:38.916Z,24.80
2023-02-11T02:13:40.481Z,25.65
2023-02-11T02:14:42.376Z,27.00
2023-02-11T02:15:52.055Z,26.10
2023-02-11T02:16:53.842Z,25.05
2023-02-11T02:18:22.769Z,28.27
2023-02-11T02:19:30.145Z,26.75
2023-02-11T02:20:43.080Z,26.23
2023-02-11T02:21:56.564Z,26.35
2023-02-11T02:23:14.063Z,26.77
2023-02-11T02:25:00.977Z,25.75
2023-02-11T02:26:26.563Z,27.00
2023-02-11T02:27:37.858Z,25.95
2023-02-11T02:29:00.935Z,30.13
2023-02-11T02:30:11.528Z,25.52
2023-02-11T02:31:41.906Z,26.90
2023-02-11T02:33:20.530Z,26.17
2023-02-11T02:34:36.303Z,25.23
2023-02-11T02:37:08.210Z,23.55
2023-02-11T02:38:21.411Z,27.33
2023-02-11T02:39:29.190Z,24.42
2023-02-11T02:40:41.041Z,26.85
2023-02-11T02:41:43.879Z,25.38
2023-02-11T02:42:46.846Z,27.08
2023-02-11T02:43:50.495Z,27.65
2023-02-11T02:44:53.178Z,27.55
2023-02-11T02:45:54.685Z,27.33
2023-02-11T02:46:56.637Z,27.42
2023-02-11T02:47:58.334Z,27.42
2023-02-11T02:49:00.791Z,27.52
2023-02-11T02:50:03.870Z,28.40
2023-02-11T02:51:26.932Z,28.17
2023-02-11T02:52:57.617Z,26.48
2023-02-11T02:54:20.901Z,26.25
2023-02-11T02:55:57.764Z,26.95
2023-02-11T02:57:28.597Z,26.42
2023-02-11T02:58:58.469Z,27.10
2023-02-11T03:00:29.644Z,26.63
2023-02-11T03:01:45.449Z,27.95
2023-02-11T03:02:50.003Z,27.83
2023-02-11T03:04:08.800Z,26.73
2023-02-11T03:05:18.667Z,26.75
2023-02-11T03:06:35.372Z,28.02
2023-02-11T03:08:01.539Z,27.25
2023-02-11T03:10:19.398Z,24.23
2023-02-11T03:11:23.093Z,25.38
2023-02-11T03:12:27.656Z,27.70
2023-02-11T03:13:33.582Z,26.23
2023-02-11T03:14:36.099Z,29.35
2023-02-11T03:15:52.572Z,28.20
2023-02-11T03:16:58.176Z,27.08
2023-02-11T03:18:01.880Z,26.38
2023-02-11T03:19:15.400Z,27.02
2023-02-11T03:20:20.257Z,26.92
2023-02-11T03:21:23.115Z,27.00
2023-02-11T03:22:34.966Z,28.00
2023-02-11T03:23:56.367Z,27.38
2023-02-11T03:24:57.909Z,27.40
2023-02-11T03:26:13.977Z,27.20
2023-02-11T03:27:25.215Z,30.05
2023-02-11T03:28:35.601Z,26.52
2023-02-11T03:30:21.929Z,27.95
2023-02-11T03:31:32.890Z,24.45
2023-02-11T03:32:41.340Z,25.60
2023-02-11T03:34:04.613Z,26.55
2023-02-11T03:35:15.421Z,26.98
2023-02-11T03:36:28.450Z,28.08
2023-02-11T03:37:40.054Z,27.40
2023-02-11T03:38:48.952Z,26.85
2023-02-11T03:40:15.362Z,27.48
2023-02-11T03:41:20.522Z,27.65
2023-02-11T03:42:26.172Z,27.67
2023-02-11T03:43:40.151Z,28.92
2023-02-11T03:44:51.572Z,28.98
2023-02-11T03:45:55.333Z,28.15
2023-02-11T03:46:57.168Z,25.73
2023-02-11T03:48:11.617Z,29.48
2023-02-11T03:49:17.164Z,27.73
2023-02-11T03:50:21.053Z,29.75
2023-02-11T03:51:25.302Z,28.25
2023-02-11T03:52:27.824Z,29.35
2023-02-11T03:53:29.271Z,27.95
2023-02-11T03:54:31.162Z,28.35
2023-02-11T03:55:36.793Z,31.27
2023-02-11T03:56:47.172Z,28.23
2023-02-11T03:57:49.013Z,29.73
2023-02-11T03:58:50.847Z,29.40
2023-02-11T03:59:55.357Z,28.65
2023-02-11T04:00:56.835Z,28.85
2023-02-11T04:01:59.543Z,27.83
2023-02-11T04:03:01.113Z,28.67
2023-02-11T04:04:02.720Z,29.60
2023-02-11T04:05:06.655Z,27.77
2023-02-11T04:06:08.316Z,29.55
2023-02-11T04:07:11.781Z,27.98
2023-02-11T04:08:13.507Z,29.13
2023-02-11T04:09:15.152Z,29.48
2023-02-11T04:10:16.838Z,29.27
2023-02-11T04:11:18.533Z,30.83
2023-02-11T04:12:20.476Z,30.08
2023-02-11T04:13:22.375Z,29.38
2023-02-11T04:14:23.861Z,30.88
2023-02-11T04:15:25.575Z,30.65
2023-02-11T04:16:27.148Z,29.73
2023-02-11T04:17:28.593Z,30.15
2023-02-11T04:18:30.000Z,30.75
2023-02-11T04:19:31.582Z,29.70
2023-02-11T04:20:33.101Z,30.50
2023-02-11T04:21:34.522Z,31.55
2023-02-11T04:22:36.565Z,30.17
2023-02-11T04:23:38.029Z,30.52
2023-02-11T04:24:39.569Z,31.48
2023-02-11T04:25:40.984Z,31.50
2023-02-11T04:26:42.624Z,32.00
2023-02-11T04:27:44.041Z,31.38
2023-02-11T04:28:45.464Z,30.65
2023-02-11T04:29:46.910Z,30.42
2023-02-11T04:30:51.006Z,32.28
2023-02-11T04:31:52.458Z,32.42
2023-02-11T04:32:54.423Z,30.90
2023-02-11T04:33:56.502Z,33.97
2023-02-11T04:35:59.257Z,29.05
2023-02-11T04:37:00.713Z,30.73
2023-02-11T04:38:02.146Z,30.73
2023-02-11T04:39:04.645Z,30.60
2023-02-11T04:40:06.694Z,29.77
2023-02-11T04:41:08.136Z,34.70
2023-02-11T04:42:09.590Z,30.85
2023-02-11T04:43:11.101Z,31.35
2023-02-11T04:44:12.646Z,30.80
2023-02-11T04:45:14.148Z,31.10
2023-02-11T04:46:15.654Z,31.95
2023-02-11T04:47:18.115Z,31.00
2023-02-11T04:48:19.517Z,32.85
2023-02-11T04:49:20.967Z,33.38
2023-02-11T04:50:22.368Z,32.90
2023-02-11T04:51:25.217Z,32.60
2023-02-11T04:52:26.666Z,31.85
2023-02-11T04:53:28.194Z,33.15
2023-02-11T04:54:29.598Z,33.97
2023-02-11T04:55:30.972Z,31.45
2023-02-11T04:56:32.417Z,34.60
2023-02-11T04:57:33.852Z,34.40
2023-02-11T04:58:35.336Z,34.08
2023-02-11T04:59:36.846Z,33.17
2023-02-11T05:00:38.327Z,34.15
2023-02-11T05:01:40.182Z,35.22
2023-02-11T05:02:41.638Z,33.58
2023-02-11T05:03:43.214Z,33.38
2023-02-11T05:04:44.764Z,34.33
2023-02-11T05:05:46.326Z,34.75
2023-02-11T05:06:47.782Z,33.90
2023-02-11T05:07:49.316Z,33.95
2023-02-11T05:08:51.021Z,33.40
2023-02-11T05:09:52.523Z,33.22
2023-02-11T05:10:54.164Z,34.40
2023-02-11T05:11:55.647Z,34.72
2023-02-11T05:12:57.051Z,34.97
2023-02-11T05:13:58.689Z,33.15
2023-02-11T05:15:00.181Z,33.25
2023-02-11T05:16:01.613Z,33.03
2023-02-11T05:17:03.340Z,32.50
2023-02-11T05:18:04.922Z,33.92
2023-02-11T05:19:06.347Z,34.95
2023-02-11T05:20:08.346Z,36.80
2023-02-11T05:21:12.530Z,34.55
2023-02-11T05:22:14.006Z,34.75
2023-02-11T05:23:15.423Z,34.03
2023-02-11T05:24:16.833Z,34.10
2023-02-11T05:25:18.541Z,34.88
2023-02-11T05:26:20.086Z,34.30
2023-02-11T05:27:21.586Z,25.83
2023-02-11T05:28:23.179Z,37.80
2023-02-11T05:29:24.657Z,31.65
2023-02-11T05:30:26.288Z,34.63
2023-02-11T05:31:27.760Z,37.38
2023-02-11T05:32:29.278Z,35.08
2023-02-11T05:33:30.856Z,34.97
2023-02-11T05:34:32.260Z,36.35
2023-02-11T05:35:33.714Z,33.95
2023-02-11T05:36:35.152Z,35.22
2023-02-11T05:37:36.786Z,34.67
2023-02-11T05:38:38.925Z,36.13
2023-02-11T05:40:41.881Z,33.35
2023-02-11T05:41:43.343Z,35.47
2023-02-11T05:42:44.806Z,35.33
2023-02-11T05:43:50.941Z,35.90
2023-02-11T05:44:52.358Z,37.00
2023-02-11T05:45:54.180Z,34.05
2023-02-11T05:46:55.791Z,32.22
2023-02-11T05:47:57.612Z,37.03
2023-02-11T05:48:59.048Z,35.13
2023-02-11T05:50:00.488Z,37.83
2023-02-11T05:51:01.895Z,36.55
2023-02-11T05:52:03.685Z,36.95
2023-02-11T05:53:06.729Z,37.67
2023-02-11T05:54:08.422Z,37.10
2023-02-11T05:55:09.991Z,36.40
2023-02-11T05:56:11.655Z,36.92
2023-02-11T05:57:13.828Z,37.38
2023-02-11T05:58:15.312Z,37.80
2023-02-11T05:59:16.961Z,37.90
2023-02-11T06:00:18.672Z,37.95
2023-02-11T06:01:20.177Z,38.80
2023-02-11T06:02:21.709Z,38.95
2023-02-11T06:03:23.210Z,37.55
2023-02-11T06:04:24.633Z,39.70
2023-02-11T06:05:26.521Z,38.25
2023-02-11T06:06:27.975Z,38.20
2023-02-11T06:07:29.441Z,38.50
2023-02-11T06:08:30.866Z,39.05
2023-02-11T06:09:32.288Z,38.60
2023-02-11T06:10:34.225Z,39.20
2023-02-11T06:11:35.605Z,40.95
2023-02-11T06:12:38.002Z,40.10
2023-02-11T06:13:39.429Z,41.38
2023-02-11T06:14:40.950Z,39.28
2023-02-11T06:15:42.386Z,39.42
2023-02-11T06:16:43.883Z,39.65
2023-02-11T06:17:45.340Z,40.88
2023-02-11T06:18:46.738Z,38.30
2023-02-11T06:19:48.134Z,38.97
2023-02-11T06:20:49.568Z,39.58
2023-02-11T06:21:51.013Z,40.15
2023-02-11T06:22:52.453Z,39.83
2023-02-11T06:23:53.870Z,38.25
2023-02-11T06:25:01.690Z,39.70
2023-02-11T06:26:05.804Z,39.35
2023-02-11T06:27:07.235Z,38.20
2023-02-11T06:28:10.308Z,38.50
2023-02-11T06:29:12.894Z,38.63
2023-02-11T06:30:14.708Z,38.55
2023-02-11T06:31:16.477Z,39.65
2023-02-11T06:32:39.533Z,37.67
2023-02-11T06:33:40.249Z,37.80
2023-02-11T06:34:41.672Z,39.83
2023-02-11T06:35:43.097Z,39.80
2023-02-11T06:36:45.234Z,40.30
2023-02-11T06:38:49.705Z,37.22
2023-02-11T06:39:51.213Z,41.97
2023-02-11T06:40:52.648Z,41.08
2023-02-11T06:41:54.460Z,42.35
2023-02-11T06:42:55.905Z,41.60
2023-02-11T06:43:57.336Z,42.38
2023-02-11T06:44:58.739Z,42.60
2023-02-11T06:46:00.221Z,40.17
2023-02-11T06:47:01.659Z,41.38
2023-02-11T06:48:03.137Z,42.50
2023-02-11T06:49:04.548Z,40.95
2023-02-11T06:50:07.518Z,45.08
2023-02-11T06:51:11.662Z,42.53
2023-02-11T06:52:13.055Z,40.55
2023-02-11T06:53:14.535Z,40.47
2023-02-11T06:54:16.022Z,41.88
2023-02-11T06:55:17.459Z,43.97
2023-02-11T06:56:20.884Z,42.42
2023-02-11T06:57:22.326Z,43.65
2023-02-11T06:58:23.811Z,42.38
2023-02-11T06:59:25.326Z,42.05
2023-02-11T07:00:26.907Z,44.45
2023-02-11T07:01:28.382Z,44.30
2023-02-11T07:02:29.936Z,42.92
2023-02-11T07:03:36.041Z,39.42
2023-02-11T07:04:37.963Z,44.30
2023-02-11T07:05:42.827Z,41.67
2023-02-11T07:06:44.246Z,41.50
2023-02-11T07:07:45.666Z,38.70
2023-02-11T07:08:48.014Z,42.70
2023-02-11T07:09:49.467Z,43.25
2023-02-11T07:10:50.903Z,44.50
2023-02-11T07:11:52.433Z,43.15
2023-02-11T07:12:53.854Z,43.95
2023-02-11T07:14:00.195Z,41.47
2023-02-11T07:15:02.586Z,43.70
2023-02-11T07:16:08.947Z,40.42
2023-02-11T07:17:10.386Z,41.58
2023-02-11T07:18:14.341Z,44.20
2023-02-11T07:19:16.185Z,42.88
2023-02-11T07:20:17.784Z,40.80
2023-02-11T07:21:21.073Z,43.38
2023-02-11T07:22:22.544Z,41.65
2023-02-11T07:23:24.010Z,42.10
2023-02-11T07:24:25.542Z,42.80
2023-02-11T07:25:26.966Z,38.03
2023-02-11T07:26:29.205Z,42.28
2023-02-11T07:27:30.686Z,43.28
2023-02-11T07:28:33.802Z,43.40
2023-02-11T07:29:35.220Z,38.35
2023-02-11T07:30:36.680Z,41.50
2023-02-11T07:31:38.370Z,40.40
2023-02-11T07:32:39.818Z,41.60
2023-02-11T07:33:42.138Z,40.00
2023-02-11T07:34:43.579Z,42.83
2023-02-11T07:35:45.023Z,41.17
2023-02-11T07:36:46.425Z,40.55
2023-02-11T07:37:47.908Z,42.35
2023-02-11T07:38:49.945Z,41.63
2023-02-11T07:40:52.726Z,38.53
2023-02-11T07:41:54.617Z,38.22
2023-02-11T07:42:56.040Z,36.15
2023-02-11T07:43:57.529Z,40.42
2023-02-11T07:44:58.983Z,40.95
2023-02-11T07:46:04.498Z,42.67
2023-02-11T07:47:06.015Z,40.35
2023-02-11T07:48:07.502Z,40.95
2023-02-11T07:49:09.235Z,40.78
2023-02-11T07:50:10.677Z,40.60
2023-02-11T07:51:21.313Z,40.30
2023-02-11T07:52:22.750Z,38.20
2023-02-11T07:53:24.170Z,39.45
2023-02-11T07:54:25.635Z,39.38
2023-02-11T07:55:27.078Z,40.58
2023-02-11T07:56:29.508Z,37.60
2023-02-11T07:57:30.929Z,37.40
2023-02-11T07:58:33.407Z,40.20
2023-02-11T07:59:34.849Z,38.90
2023-02-11T08:00:36.359Z,39.83
2023-02-11T08:01:38.099Z,40.70
2023-02-11T08:02:39.549Z,40.58
2023-02-11T08:03:42.803Z,41.33
2023-02-11T08:04:46.674Z,37.90
2023-02-11T08:05:48.160Z,38.60
2023-02-11T08:06:49.666Z,39.88
2023-02-11T08:07:53.114Z,40.08
2023-02-11T08:08:54.764Z,41.05
2023-02-11T08:09:56.154Z,37.72
2023-02-11T08:10:57.978Z,36.70
2023-02-11T08:12:00.143Z,37.72
2023-02-11T08:13:01.609Z,38.95
2023-02-11T08:14:03.164Z,39.95
2023-02-11T08:15:04.821Z,38.60
2023-02-11T08:16:07.402Z,39.22
2023-02-11T08:17:08.820Z,34.83
2023-02-11T08:18:10.239Z,39.05
2023-02-11T08:19:16.958Z,40.20
2023-02-11T08:20:18.490Z,37.45
2023-02-11T08:21:20.627Z,39.33
2023-02-11T08:22:22.019Z,39.38
2023-02-11T08:23:23.454Z,38.50
2023-02-11T08:24:24.910Z,38.15
2023-02-11T08:25:26.332Z,38.05
2023-02-11T08:26:31.662Z,38.90
2023-02-11T08:27:34.387Z,38.10
2023-02-11T08:28:38.130Z,34.92
2023-02-11T08:29:39.538Z,37.55
2023-02-11T08:30:40.986Z,35.85
2023-02-11T08:31:46.615Z,35.80
2023-02-11T08:32:48.153Z,37.08
2023-02-11T08:33:50.058Z,36.15
2023-02-11T08:34:52.565Z,37.10
2023-02-11T08:35:54.460Z,38.78
2023-02-11T08:36:56.040Z,37.45
2023-02-11T08:37:57.476Z,37.17
2023-02-11T08:39:17.331Z,36.63
2023-02-11T08:40:19.840Z,35.72
2023-02-11T08:41:21.330Z,37.22
2023-02-11T08:42:22.773Z,36.38
2023-02-11T08:43:24.204Z,33.92
2023-02-11T08:44:25.847Z,35.30
2023-02-11T08:45:27.594Z,35.85
2023-02-11T08:46:29.114Z,35.50
2023-02-11T08:47:31.362Z,35.53
2023-02-11T08:48:33.077Z,35.53
2023-02-11T08:49:34.622Z,33.58
2023-02-11T08:50:39.158Z,35.17
2023-02-11T08:51:41.021Z,33.88
2023-02-11T08:52:43.005Z,38.20
2023-02-11T08:53:45.473Z,36.63
2023-02-11T08:54:47.185Z,32.28
2023-02-11T08:55:53.512Z,36.33
2023-02-11T08:56:55.018Z,36.05
2023-02-11T08:57:56.723Z,36.92
2023-02-11T08:58:58.268Z,36.45
2023-02-11T08:59:59.741Z,32.88
2023-02-11T09:01:01.212Z,34.67
2023-02-11T09:02:02.716Z,35.55
2023-02-11T09:03:04.330Z,32.50
2023-02-11T09:04:05.874Z,33.75
2023-02-11T09:05:09.075Z,34.63
2023-02-11T09:06:12.261Z,31.05
2023-02-11T09:07:13.718Z,33.13
2023-02-11T09:08:15.918Z,34.67
2023-02-11T09:09:18.531Z,34.05
2023-02-11T09:10:19.957Z,35.08
2023-02-11T09:11:27.412Z,33.05
2023-02-11T09:12:28.851Z,35.20
2023-02-11T09:13:31.566Z,34.17
2023-02-11T09:14:33.257Z,35.28
2023-02-11T09:15:35.364Z,33.55
2023-02-11T09:17:38.360Z,31.95
2023-02-11T09:18:39.784Z,33.40
2023-02-11T09:19:41.280Z,33.83
2023-02-11T09:20:42.772Z,36.20
2023-02-11T09:21:44.537Z,36.13
2023-02-11T09:22:46.020Z,34.47
2023-02-11T09:23:48.182Z,36.10
2023-02-11T09:24:49.692Z,36.40
2023-02-11T09:25:51.394Z,34.00
2023-02-11T09:26:53.017Z,35.17
2023-02-11T09:27:54.447Z,33.05
2023-02-11T09:28:56.292Z,35.22
2023-02-11T09:29:57.709Z,34.78
2023-02-11T09:30:59.249Z,31.20
2023-02-11T09:32:00.839Z,34.38
2023-02-11T09:33:02.765Z,34.78
2023-02-11T09:34:05.894Z,35.08
2023-02-11T09:35:07.506Z,34.22
2023-02-11T09:36:09.267Z,33.70
2023-02-11T09:37:10.742Z,34.92
2023-02-11T09:38:12.209Z,35.92
2023-02-11T09:39:17.322Z,34.35
2023-02-11T09:40:19.943Z,33.42
2023-02-11T09:41:24.152Z,32.95
2023-02-11T09:43:11.639Z,33.88
2023-02-11T09:44:23.280Z,31.25
2023-02-11T09:45:27.436Z,33.35
2023-02-11T09:46:36.837Z,32.15
2023-02-11T09:47:49.067Z,32.42
2023-02-11T09:48:53.691Z,33.63
2023-02-11T09:50:12.466Z,33.55
2023-02-11T09:51:48.599Z,32.47
2023-02-11T09:53:01.922Z,31.58
2023-02-11T09:54:11.868Z,32.72
2023-02-11T09:55:42.665Z,31.75
2023-02-11T09:56:44.146Z,32.22
2023-02-11T09:57:45.594Z,33.83
2023-02-11T09:58:47.241Z,32.08
2023-02-11T09:59:49.349Z,33.60
2023-02-11T10:02:02.067Z,31.80
2023-02-11T10:03:18.788Z,31.48
2023-02-11T10:04:42.154Z,33.67
2023-02-11T10:06:00.407Z,27.55
2023-02-11T10:07:29.505Z,32.83
2023-02-11T10:08:38.871Z,32.67
2023-02-11T10:09:58.730Z,33.50
2023-02-11T10:11:08.830Z,33.45
2023-02-11T10:12:49.628Z,36.38
2023-02-11T10:14:23.492Z,29.83
2023-02-11T10:15:58.220Z,28.52
2023-02-11T10:16:59.643Z,30.05
2023-02-11T10:18:28.123Z,33.30
2023-02-11T10:20:08.151Z,29.40
2023-02-11T10:21:22.740Z,29.13
2023-02-11T10:22:40.493Z,32.38
2023-02-11T10:23:46.932Z,32.50
2023-02-11T10:25:00.196Z,34.13
2023-02-11T10:26:02.566Z,31.63
2023-02-11T10:27:29.043Z,31.38
2023-02-11T10:28:34.041Z,36.05
2023-02-11T10:29:36.639Z,33.95
2023-02-11T10:30:43.187Z,34.65
2023-02-11T10:31:46.492Z,31.73
2023-02-11T10:32:54.644Z,34.13
2023-02-11T10:34:07.055Z,34.40
2023-02-11T10:35:19.387Z,35.10
2023-02-11T10:36:24.067Z,34.85
2023-02-11T10:37:25.518Z,32.95
2023-02-11T10:38:27.686Z,30.30
2023-02-11T10:39:29.149Z,36.70
2023-02-11T10:40:31.737Z,32.00
2023-02-11T10:41:38.445Z,33.65
2023-02-11T10:42:44.279Z,36.13
2023-02-11T10:43:45.707Z,34.92
2023-02-11T10:44:59.182Z,33.53
2023-02-11T10:46:04.591Z,36.00
2023-02-11T10:47:24.005Z,36.17
2023-02-11T10:48:40.626Z,32.00
2023-02-11T10:49:44.337Z,32.45
2023-02-11T10:50:45.828Z,35.08
2023-02-11T10:51:47.344Z,35.88
2023-02-11T10:52:49.031Z,35.38
2023-02-11T10:54:06.140Z,35.47
2023-02-11T10:55:10.308Z,33.50
2023-02-11T10:56:19.699Z,34.30
2023-02-11T10:57:21.316Z,34.00
2023-02-11T10:58:45.068Z,32.58
2023-02-11T10:59:47.168Z,34.17
2023-02-11T11:02:00.576Z,32.88
2023-02-11T11:03:04.765Z,30.15
2023-02-11T11:04:06.603Z,32.30
2023-02-11T11:05:20.868Z,33.83
2023-02-11T11:06:33.428Z,35.30
2023-02-11T11:07:35.166Z,32.78
2023-02-11T11:08:45.174Z,31.85
2023-02-11T11:09:54.137Z,35.70
2023-02-11T11:11:08.957Z,33.20
2023-02-11T11:12:31.758Z,34.20
2023-02-11T11:13:36.353Z,31.20
2023-02-11T11:14:37.800Z,34.33
2023-02-11T11:15:39.296Z,36.25
2023-02-11T11:16:53.529Z,35.80
2023-02-11T11:18:22.005Z,35.63
2023-02-11T11:19:25.775Z,33.90
2023-02-11T11:20:29.744Z,36.05
2023-02-11T11:21:40.185Z,33.40
2023-02-11T11:22:43.212Z,33.67
2023-02-11T11:23:59.915Z,37.45
2023-02-11T11:25:01.562Z,33.38
2023-02-11T11:26:07.569Z,34.95
2023-02-11T11:27:18.987Z,34.63
2023-02-11T11:28:25.137Z,37.20
2023-02-11T11:29:39.482Z,32.97
2023-02-11T11:30:43.044Z,32.92
2023-02-11T11:31:56.849Z,36.67
2023-02-11T11:32:59.212Z,35.92
2023-02-11T11:34:14.761Z,36.38
2023-02-11T11:35:32.959Z,34.17
2023-02-11T11:36:38.588Z,34.25
2023-02-11T11:37:40.144Z,35.47
2023-02-11T11:38:57.476Z,34.40
2023-02-11T11:40:03.045Z,34.60
2023-02-11T11:41:34.279Z,33.58
2023-02-11T11:42:38.827Z,34.50
2023-02-11T11:43:40.371Z,34.22
2023-02-11T11:44:41.802Z,34.88
2023-02-11T11:45:58.085Z,35.83
2023-02-11T11:47:11.871Z,33.92
2023-02-11T11:48:22.573Z,35.63
2023-02-11T11:49:35.926Z,34.13
2023-02-11T11:50:43.349Z,33.75
2023-02-11T11:52:15.389Z,33.97
2023-02-11T11:53:23.021Z,33.70
2023-02-11T11:54:27.637Z,36.22
2023-02-11T11:55:38.332Z,36.08
2023-02-11T11:56:51.006Z,38.70
2023-02-11T11:57:52.543Z,35.40
2023-02-11T11:58:54.546Z,37.13
2023-02-11T11:59:58.086Z,33.40
2023-02-11T12:01:29.706Z,35.22
2023-02-11T12:02:59.877Z,34.50
2023-02-11T12:04:17.485Z,30.00
2023-02-11T12:05:39.175Z,32.83
2023-02-11T12:07:07.325Z,34.95
2023-02-11T12:08:20.882Z,31.20
2023-02-11T12:09:26.840Z,34.45
2023-02-11T12:10:39.583Z,34.42
2023-02-11T12:11:49.942Z,33.33
2023-02-11T12:13:19.134Z,29.90
2023-02-11T12:14:32.865Z,32.85
2023-02-11T12:15:59.035Z,33.92
2023-02-11T12:17:24.549Z,32.03
2023-02-11T12:18:36.068Z,32.53
2023-02-11T12:19:56.487Z,31.52
2023-02-11T12:20:57.873Z,31.40
2023-02-11T12:22:17.637Z,30.60
2023-02-11T12:23:48.761Z,32.55
2023-02-11T12:25:18.978Z,31.35
2023-02-11T12:26:21.875Z,29.50
2023-02-11T12:27:29.372Z,29.90
2023-02-11T12:28:56.014Z,32.10
2023-02-11T12:30:12.308Z,29.02
2023-02-11T12:31:31.765Z,29.70
2023-02-11T12:32:55.001Z,32.17
2023-02-11T12:34:14.605Z,27.67
2023-02-11T12:35:38.508Z,26.27
2023-02-11T12:36:54.393Z,28.60
2023-02-11T12:38:15.894Z,25.90
2023-02-11T12:39:32.553Z,27.30
2023-02-11T12:40:44.951Z,27.48
2023-02-11T12:42:07.990Z,30.65
2023-02-11T12:43:25.624Z,26.90
2023-02-11T12:44:36.516Z,30.23
2023-02-11T12:45:56.553Z,28.35
2023-02-11T12:48:12.778Z,23.00
2023-02-11T12:49:32.710Z,25.45
2023-02-11T12:50:40.255Z,28.30
2023-02-11T12:52:00.372Z,27.58
2023-02-11T12:54:28.051Z,25.92
2023-02-11T12:55:40.044Z,25.70
2023-02-11T12:56:51.124Z,25.40
2023-02-11T12:57:55.948Z,26.88
2023-02-11T12:59:00.597Z,27.23
2023-02-11T13:00:22.662Z,26.98
2023-02-11T13:01:30.623Z,22.20
2023-02-11T13:02:44.426Z,24.08
2023-02-11T13:03:55.894Z,25.30
2023-02-11T13:05:04.050Z,24.33
2023-02-11T13:06:11.463Z,25.33
2023-02-11T13:07:19.313Z,23.45
2023-02-11T13:08:45.937Z,24.88
2023-02-11T13:10:05.038Z,24.02
2023-02-11T13:11:18.593Z,24.35
2023-02-11T13:12:38.862Z,24.30
2023-02-11T13:13:46.153Z,25.10
2023-02-11T13:14:49.768Z,24.00
2023-02-11T13:16:00.533Z,25.23
2023-02-11T13:17:12.895Z,23.05
2023-02-11T13:18:23.044Z,24.33
2023-02-11T13:19:30.447Z,22.50
2023-02-11T13:20:48.427Z,21.70
2023-02-11T13:22:07.176Z,23.10
2023-02-11T13:23:15.984Z,19.23
2023-02-11T13:24:55.208Z,22.95
2023-02-11T13:26:09.840Z,21.95
2023-02-11T13:27:18.789Z,19.30
2023-02-11T13:28:40.140Z,22.05
2023-02-11T13:30:04.424Z,22.48
2023-02-11T13:31:08.042Z,22.05
2023-02-11T13:32:14.892Z,22.20
2023-02-11T13:33:20.570Z,22.88
2023-02-11T13:34:40.658Z,22.90
2023-02-11T13:36:55.015Z,22.33
2023-02-11T13:37:59.236Z,23.00
2023-02-11T13:39:06.222Z,24.15
2023-02-11T13:40:08.060Z,23.67
2023-02-11T13:41:31.686Z,24.45
2023-02-11T13:42:45.392Z,21.65
2023-02-11T13:44:02.166Z,23.05
2023-02-11T13:45:36.836Z,22.77
2023-02-11T13:46:57.265Z,21.73
2023-02-11T13:48:01.496Z,19.95
2023-02-11T13:49:03.026Z,22.00
2023-02-11T13:50:07.411Z,25.35
2023-02-11T13:51:12.342Z,21.55
2023-02-11T13:52:25.841Z,21.48
2023-02-11T13:53:28.184Z,23.65
2023-02-11T13:54:34.641Z,21.13
2023-02-11T13:55:36.785Z,23.30
2023-02-11T13:56:42.626Z,22.13
2023-02-11T13:57:44.150Z,21.05
2023-02-11T13:58:50.922Z,22.38
2023-02-11T13:59:55.379Z,22.38
2023-02-11T14:00:58.383Z,21.95
2023-02-11T14:02:18.559Z,22.17
2023-02-11T14:03:41.207Z,23.33
2023-02-11T14:05:23.028Z,21.80
2023-02-11T14:07:05.326Z,20.60
2023-02-11T14:08:28.438Z,19.77
2023-02-11T14:09:36.254Z,22.80
2023-02-11T14:10:43.400Z,22.15
2023-02-11T14:12:14.961Z,25.25
2023-02-11T14:13:22.211Z,22.48
2023-02-11T14:14:30.215Z,21.50
2023-02-11T14:16:58.203Z,20.63
2023-02-11T14:17:59.713Z,21.88
2023-02-11T14:19:02.387Z,22.25
2023-02-11T14:20:35.387Z,23.48
2023-02-11T14:21:40.275Z,21.73
2023-02-11T14:22:50.009Z,22.65
2023-02-11T14:23:53.290Z,23.25
2023-02-11T14:25:00.912Z,22.90
2023-02-11T14:26:20.525Z,20.20
2023-02-11T14:27:34.341Z,23.05
2023-02-11T14:28:36.618Z,23.70
2023-02-11T14:30:07.071Z,24.83
2023-02-11T14:31:13.793Z,20.73
2023-02-11T14:32:15.292Z,24.90
2023-02-11T14:33:38.353Z,25.98
2023-02-11T14:34:46.577Z,21.17
2023-02-11T14:36:06.827Z,25.02
2023-02-11T14:37:18.830Z,24.92